Ulan Bator, Mongolia
Current Conditions -  °F | °C
As of 4:00 AM on Sunday 21 Dec 2014 (Local Time) from ZMUB Reporting Station
Clear Clear  
Wind Chill:   Ceiling: Unl
Heat Index:   Visibility: 6mi
Dew Point: -6°   Wind: 0mph
Humidity: 78%   Direction: NA
Pressure: 30.24"   Gusts: NA
Location:  47.92°N, 106.91°E
Report Text: ZMUB 202000Z 00000MPS CAVOK M18/M21 Q1024 NOSIG RMK QFE659.7 77
Loading
Personal Weather Stations






























Interactive Weather Map New forecast layout! Learn more

10-Day Weather Forecast

Advertisements
Track Severe Weather on mobile